Airfield :
LOGIN :

Register | Disclaimer

   EN    FR    IT 

 










Legend :    VFR   Marginal VFR   IFR   Intensive IFR   Very Intensive IFR
Visi :
Ceiling :
>= 8 km
>= 3000ft
5 to 8 km
1000 to 3000 ft
1500m to 5 km
500 to 1000 ft
800 to 1500m
200 to 500 ft
< 800m
< 200 ft
Symbols :   Thunderstorms  Fog  Heavy snow  Heavy precipitations  Wind > 20 kt
SIGMETs :     Misc.  Thunderstorms  Icing  Turbulence  Mountain Waves  Volcanic Ashes






- Airport Elevation : 423 ft
- IATA code : PIS


LFBI - Poitiers

CURRENT METAR :
  • 041800Z AUTO 26013KT 9999 FEW025 SCT049 BKN068 21/16 Q1022 NOSIG

EXPIRED METARs :
  • 041730Z AUTO 24012KT 9999 BKN027 OVC066 21/16 Q1022 NOSIG
  • 041700Z AUTO 24013KT 9999 SCT029 OVC072 22/15 Q1022 NOSIG
  • 041630Z AUTO 25013KT 210V290 9999 OVC030 23/15 Q1022 NOSIG
  • 041600Z AUTO 25016KT 9000 BKN031 23/15 Q1022 NOSIG
  • 041530Z AUTO 24012KT 9999 BKN031 24/16 Q1022 NOSIG

TAF TAF LFBI
Valid from the 04 at 18:00 until the 05 at 18:00 UTC


041700Z 0418/0518 24010KT 9999 BKN030
BECMG 0420/0422 BKN018
BECMG 0422/0424 BKN012
TEMPO 0500/0506 3000 DZ OVC004
BECMG 0510/0512 BKN030



MET'MAP, your aeronautical weather chart ! - Copyright ORBIFLY December 2007 - Disclaimer

ORBIFLY MET'MAP TEAM :

Programming & Development : Alexandra Zaïnal
Concept & original design : Baudouin d'Aumeries
Assistance for programming : Marc-Olivier Méhu
Technical & hardware support : Manuel Goepfert

Contact : metmap@orbifly.com




SOURCES & CREDITS :

   NOAA